Nordegg, Canada
Current Conditions -  °F | °C
As of 7:00 PM on Monday 24 Nov 2014 (Local Time) from CYET Reporting Station
Overcast Overcast  
Wind Chill: 30°   Ceiling: 8000
Heat Index: 30°   Visibility: 9mi
Dew Point: 30°   Wind: 3mph
Humidity: 100%   Direction: 170°S
Pressure: 29.67"   Gusts: NA
Location:  52.47°N, 116.08°W
Report Text: CYET 250200Z AUTO 17003KT 9SM OVC080 M01/M01 A2967 RMK PRESFR SLP088
Loading
Personal Weather Stations






























Interactive Weather Map New forecast layout! Learn more

10-Day Weather Forecast

Advertisements
Track Severe Weather on mobile